Cos Orchid — S6EA5 — position and weather

sailwx.info

Track history (hours):
 
Tides and Currents Weather Stations Pressure Air Temp Water Temp Dewpoint Dewpoint Depression Visibility Wind Speed Wind Dir Waves Ship Positions

Cos Orchid

Last reported at 2018-Apr-21 22:42 UTC. Time now 2018-Apr-21 23:20 UTC.
Position N 10°03' W 017°00'.

Length 190 m; draft 9.6 m.

Type: Cargo ship. MMSI: 565100000.

Date/timePositionNaut miles runAvg speedWind from/ knotsBaromVisibWave heightAir tempDewpointWater temp
2018-Apr-21 22:42N 10°03' W 017°00'  
2018-Apr-18 11:50N 27°05' W 014°14'413.3
2018-Apr-18 11:30N 27°08' W 014°11'713.4
2018-Apr-18 11:00N 27°14' W 014°07'713.6
2018-Apr-18 10:30N 27°19' W 014°03'713.6
2018-Apr-18 10:00N 27°25' W 013°59'713.5
2018-Apr-18 09:30N 27°31' W 013°54'713.7
2018-Apr-18 09:00N 27°36' W 013°50'713.9
2018-Apr-18 08:30N 27°42' W 013°45'713.9
2018-Apr-18 08:01N 27°48' W 013°41'714.0
2018-Apr-18 07:31N 27°54' W 013°37'714.0
2018-Apr-18 07:00N 27°59' W 013°32'714.1
2018-Apr-18 06:30N 28°05' W 013°27'714.0
2018-Apr-18 06:00N 28°11' W 013°23'713.9
2018-Apr-18 05:30N 28°17' W 013°19'713.8
2018-Apr-18 05:00N 28°22' W 013°14'713.7
2018-Apr-18 04:30N 28°28' W 013°10'713.3
2018-Apr-18 04:00N 28°34' W 013°05'713.4
2018-Apr-18 03:30N 28°39' W 013°01'713.7
2018-Apr-18 03:01N 28°44' W 012°57'713.8
2018-Apr-18 02:30N 28°50' W 012°52'713.5
2018-Apr-18 02:00N 28°56' W 012°48'713.4
2018-Apr-18 01:30N 29°01' W 012°43'713.4
2018-Apr-18 01:00N 29°07' W 012°39'713.5
2018-Apr-18 00:30N 29°13' W 012°35'713.5
2018-Apr-18 00:00N 29°18' W 012°31'713.5
2018-Apr-17 23:29N 29°24' W 012°26'613.4
2018-Apr-17 23:00N 29°29' W 012°22'713.3
2018-Apr-17 22:30N 29°35' W 012°17'713.3
2018-Apr-17 22:00N 29°40' W 012°13'713.2
2018-Apr-17 21:28N 29°46' W 012°08'613.2
2018-Apr-17 20:59N 29°51' W 012°04'813.1
2018-Apr-17 20:24N 29°57' W 011°59'913.2
2018-Apr-17 19:41N 30°05' W 011°53'513.2
2018-Apr-17 19:20N 30°09' W 011°50'413.2
2018-Apr-17 19:00N 30°13' W 011°47'713.3
2018-Apr-17 18:30N 30°18' W 011°43'713.2
2018-Apr-17 18:00N 30°24' W 011°38'713.3
2018-Apr-17 17:30N 30°29' W 011°34'713.3
2018-Apr-17 16:59N 30°35' W 011°29'613.3
2018-Apr-17 16:30N 30°40' W 011°25'713.3
2018-Apr-17 15:58N 30°46' W 011°20'613.5
2018-Apr-17 15:30N 30°51' W 011°16'713.6
2018-Apr-17 15:00N 30°57' W 011°12'713.5
2018-Apr-17 14:30N 31°02' W 011°08'713.4
2018-Apr-17 14:00N 31°08' W 011°03'713.1
2018-Apr-17 13:28N 31°14' W 010°59'613.0
2018-Apr-17 13:00N 31°19' W 010°55'713.2
2018-Apr-17 12:30N 31°24' W 010°50'38112.8
2018-Apr-16 06:39N 35°58' W 005°32'110.0
2018-Apr-16 06:30N 35°59' W 005°30'5 9.5
2018-Apr-16 06:00N 36°00' W 005°25'5 9.6
2018-Apr-16 05:30N 36°01' W 005°19'5 9.9
2018-Apr-16 05:00N 36°02' W 005°13'611.0
2018-Apr-16 04:29N 36°03' W 005°06'911.3
2018-Apr-16 03:42N 36°04' W 004°55'19210.1
2018-Apr-15 08:36N 37°09' W 001°09'612.9
2018-Apr-15 08:08N 37°13' W 001°04'213.0
2018-Apr-15 08:00N 37°14' W 001°02'712.8
2018-Apr-15 07:27N 37°19' W 000°55'612.5
2018-Apr-15 06:59N 37°22' W 000°50'612.9
2018-Apr-15 06:29N 37°27' W 000°44'612.9
2018-Apr-15 06:00N 37°31' W 000°38'612.9
2018-Apr-15 05:30N 37°36' W 000°32'612.7
2018-Apr-15 05:00N 37°41' W 000°27'612.4
2018-Apr-15 04:30N 37°46' W 000°23'613.1
2018-Apr-15 04:00N 37°51' W 000°19'712.9
2018-Apr-15 03:30N 37°57' W 000°15'612.9
2018-Apr-15 03:00N 38°02' W 000°10'713.1
2018-Apr-15 02:29N 38°08' W 000°05'19213.2
2018-Apr-14 11:58N 40°56' E 001°55'714.0
2018-Apr-14 11:29N 41°02' E 001°60'713.9
2018-Apr-14 11:00N 41°07' E 002°04'713.6
2018-Apr-14 10:30N 41°13' E 002°08'611.4
2018-Apr-14 10:00N 41°19' E 002°10'2 4.2
2018-Apr-14 09:28N 41°21' E 002°10'1 1.0
2018-Apr-14 08:58N 41°22' E 002°10'0 0.0
2018-Apr-14 08:28N 41°22' E 002°10'0 0.0
2018-Apr-14 07:58N 41°22' E 002°10'0 0.0
2018-Apr-14 07:28N 41°22' E 002°10'0 0.0
2018-Apr-14 06:58N 41°22' E 002°10'0 0.0
2018-Apr-14 06:28N 41°22' E 002°10'0 0.0
2018-Apr-14 05:58N 41°22' E 002°10'0 0.0
2018-Apr-14 05:28N 41°22' E 002°10'0 0.0
2018-Apr-14 04:58N 41°22' E 002°10'0 0.0
2018-Apr-14 04:28N 41°22' E 002°10'0 0.0
2018-Apr-14 03:58N 41°22' E 002°10'0 0.0
2018-Apr-14 03:28N 41°22' E 002°11'0 0.0
2018-Apr-14 02:58N 41°22' E 002°10'0 0.0
2018-Apr-14 02:28N 41°22' E 002°10'0 0.0
2018-Apr-14 01:58N 41°22' E 002°10'0 0.0
2018-Apr-14 01:28N 41°22' E 002°10'0 0.0
2018-Apr-14 00:58N 41°22' E 002°10'0 0.0
2018-Apr-14 00:28N 41°22' E 002°11'0 0.0
2018-Apr-13 23:58N 41°22' E 002°10'0 0.0
2018-Apr-13 23:28N 41°22' E 002°10'0 0.0
2018-Apr-13 22:58N 41°22' E 002°10'0 0.0
2018-Apr-13 22:28N 41°22' E 002°10'0 0.0
2018-Apr-13 21:55N 41°22' E 002°10'0 0.0
2018-Apr-13 21:28N 41°22' E 002°10'0 0.0
2018-Apr-13 20:58N 41°22' E 002°10'0 0.0
2018-Apr-13 20:28N 41°22' E 002°10'0 0.0
2018-Apr-13 19:58N 41°22' E 002°10'0 0.0
2018-Apr-13 19:28N 41°22' E 002°10'0 0.0
2018-Apr-13 18:52N 41°22' E 002°10'0 0.0
2018-Apr-13 18:25N 41°22' E 002°10'0 0.0
2018-Apr-13 17:58N 41°22' E 002°10'0 0.0
2018-Apr-13 16:52N 41°22' E 002°10'0 0.0
2018-Apr-13 16:28N 41°22' E 002°10'0 0.0
2018-Apr-13 15:58N 41°22' E 002°10'0 0.0
2018-Apr-13 15:28N 41°22' E 002°10'0 0.0
2018-Apr-13 14:58N 41°22' E 002°10'0 0.0
2018-Apr-13 14:25N 41°22' E 002°10'0 0.0
2018-Apr-13 13:58N 41°22' E 002°10'0 0.0
2018-Apr-13 13:31N 41°22' E 002°10'0 0.0
2018-Apr-13 12:57N 41°21' E 002°10'0 0.0
2018-Apr-13 12:31N 41°22' E 002°10'0 0.0
2018-Apr-13 12:00N 41°22' E 002°10'0 0.0
2018-Apr-13 11:30N 41°22' E 002°10'0 0.0
2018-Apr-13 11:00N 41°22' E 002°10'0 0.0
2018-Apr-13 10:30N 41°22' E 002°10'0 0.0
2018-Apr-13 10:00N 41°22' E 002°10'0 0.1
2018-Apr-13 09:30N 41°22' E 002°10'0 0.1
2018-Apr-13 09:00N 41°22' E 002°10'0 0.0
2018-Apr-13 08:30N 41°22' E 002°10'0 0.0
2018-Apr-13 08:00N 41°22' E 002°10'0 0.0
2018-Apr-13 07:30N 41°22' E 002°10'0 0.0
2018-Apr-13 07:00N 41°22' E 002°10'0 0.0
2018-Apr-13 06:30N 41°22' E 002°10'0 0.0
2018-Apr-13 06:00N 41°22' E 002°10'0 0.0
2018-Apr-13 05:30N 41°22' E 002°10'0 0.0
2018-Apr-13 05:00N 41°22' E 002°10'0 0.0
2018-Apr-13 04:30N 41°22' E 002°10'0 0.0
2018-Apr-13 04:00N 41°22' E 002°10'0 0.0
2018-Apr-13 03:30N 41°22' E 002°10'0 0.0
2018-Apr-13 03:00N 41°22' E 002°10'0 0.0
2018-Apr-13 02:30N 41°22' E 002°10'0 0.0
2018-Apr-13 01:57N 41°22' E 002°10'0 0.0
2018-Apr-13 01:30N 41°22' E 002°10'0 0.0
2018-Apr-13 01:00N 41°22' E 002°10'0 0.0
2018-Apr-13 00:30N 41°22' E 002°10'0 0.0
2018-Apr-13 00:00N 41°22' E 002°10'0 0.0
2018-Apr-12 23:27N 41°22' E 002°10'0 0.0
2018-Apr-12 23:00N 41°22' E 002°10'0 0.0
2018-Apr-12 22:30N 41°22' E 002°10'0 0.0
2018-Apr-12 21:57N 41°22' E 002°10'0 0.0
2018-Apr-12 21:30N 41°22' E 002°10'0 0.0
2018-Apr-12 20:57N 41°22' E 002°10'0 0.0
2018-Apr-12 20:30N 41°22' E 002°10'0 0.0
2018-Apr-12 20:00N 41°22' E 002°10'0 0.0
2018-Apr-12 19:30N 41°22' E 002°10'0 0.0
2018-Apr-12 19:00N 41°22' E 002°10'0 0.0
2018-Apr-12 18:30N 41°22' E 002°10'0 0.0
2018-Apr-12 18:00N 41°22' E 002°10'0 0.0
2018-Apr-12 17:30N 41°22' E 002°10'0 0.0
2018-Apr-12 17:00N 41°22' E 002°10'0 0.0
2018-Apr-12 16:30N 41°22' E 002°10'0 0.0
2018-Apr-12 16:00N 41°22' E 002°10'0 0.0
2018-Apr-12 15:30N 41°22' E 002°10'0 0.0
2018-Apr-12 15:00N 41°22' E 002°10'0 0.0
2018-Apr-12 14:30N 41°22' E 002°10'0 0.0
2018-Apr-12 14:00N 41°22' E 002°10'0 0.0
2018-Apr-12 13:30N 41°22' E 002°10'0 0.0
2018-Apr-12 13:00N 41°22' E 002°10'0 0.0
2018-Apr-12 12:30N 41°22' E 002°10'0 0.0
2018-Apr-12 12:00N 41°22' E 002°10'0 0.0
2018-Apr-12 11:30N 41°22' E 002°10'0 0.0
2018-Apr-12 11:00N 41°22' E 002°10'0 0.0
2018-Apr-12 10:30N 41°22' E 002°10'0 0.0
2018-Apr-12 10:00N 41°22' E 002°10'0 0.0
2018-Apr-12 09:30N 41°22' E 002°11'0 0.0
2018-Apr-12 09:00N 41°22' E 002°10'0 0.0
2018-Apr-12 08:30N 41°22' E 002°10'0 0.0
2018-Apr-12 08:00N 41°22' E 002°10'0 0.0
2018-Apr-12 07:27N 41°22' E 002°10'1 1.6
2018-Apr-12 07:00N 41°21' E 002°10'4 7.4
2018-Apr-12 06:30N 41°17' E 002°11'3 6.4
2018-Apr-12 06:00N 41°18' E 002°15'5 3.0
2018-Apr-12 04:14N 41°21' E 002°20'0 0.2
2018-Apr-12 04:00N 41°21' E 002°20'0 0.2
2018-Apr-12 03:30N 41°21' E 002°21'0 0.5
2018-Apr-12 03:00N 41°21' E 002°21'0 0.6
2018-Apr-12 02:30N 41°21' E 002°20'1 1.4
2018-Apr-12 02:00N 41°20' E 002°20'3 5.1
2018-Apr-12 01:30N 41°20' E 002°16'1 1.0
2018-Apr-12 01:00N 41°20' E 002°16'0 0.8
2018-Apr-12 00:30N 41°20' E 002°17'0 0.8
2018-Apr-12 00:00N 41°20' E 002°17'0 0.9
2018-Apr-11 23:30N 41°19' E 002°18'0 0.8
2018-Apr-11 23:00N 41°19' E 002°19'  
Track history (hours):
 
Tides and Currents Weather Stations Pressure Air Temp Water Temp Dewpoint Dewpoint Depression Visibility Wind Speed Wind Dir Waves Ship Positions

Cos Orchid

Last reported at 2018-Apr-21 22:42 UTC. Time now 2018-Apr-21 23:20 UTC.
Position N 10°03' W 017°00'.

Length 190 m; draft 9.6 m.

Type: Cargo ship. MMSI: 565100000.

Date/timePositionNaut miles runAvg speedWind from/ knotsBaromVisibWave heightAir tempDewpointWater temp
2018-Apr-21 22:42N 10°03' W 017°00'  
2018-Apr-18 11:50N 27°05' W 014°14'413.3
2018-Apr-18 11:30N 27°08' W 014°11'713.4
2018-Apr-18 11:00N 27°14' W 014°07'713.6
2018-Apr-18 10:30N 27°19' W 014°03'713.6
2018-Apr-18 10:00N 27°25' W 013°59'713.5
2018-Apr-18 09:30N 27°31' W 013°54'713.7
2018-Apr-18 09:00N 27°36' W 013°50'713.9
2018-Apr-18 08:30N 27°42' W 013°45'713.9
2018-Apr-18 08:01N 27°48' W 013°41'714.0
2018-Apr-18 07:31N 27°54' W 013°37'714.0
2018-Apr-18 07:00N 27°59' W 013°32'714.1
2018-Apr-18 06:30N 28°05' W 013°27'714.0
2018-Apr-18 06:00N 28°11' W 013°23'713.9
2018-Apr-18 05:30N 28°17' W 013°19'713.8
2018-Apr-18 05:00N 28°22' W 013°14'713.7
2018-Apr-18 04:30N 28°28' W 013°10'713.3
2018-Apr-18 04:00N 28°34' W 013°05'713.4
2018-Apr-18 03:30N 28°39' W 013°01'713.7
2018-Apr-18 03:01N 28°44' W 012°57'713.8
2018-Apr-18 02:30N 28°50' W 012°52'713.5
2018-Apr-18 02:00N 28°56' W 012°48'713.4
2018-Apr-18 01:30N 29°01' W 012°43'713.4
2018-Apr-18 01:00N 29°07' W 012°39'713.5
2018-Apr-18 00:30N 29°13' W 012°35'713.5
2018-Apr-18 00:00N 29°18' W 012°31'713.5
2018-Apr-17 23:29N 29°24' W 012°26'613.4
2018-Apr-17 23:00N 29°29' W 012°22'713.3
2018-Apr-17 22:30N 29°35' W 012°17'713.3
2018-Apr-17 22:00N 29°40' W 012°13'713.2
2018-Apr-17 21:28N 29°46' W 012°08'613.2
2018-Apr-17 20:59N 29°51' W 012°04'813.1
2018-Apr-17 20:24N 29°57' W 011°59'913.2
2018-Apr-17 19:41N 30°05' W 011°53'513.2
2018-Apr-17 19:20N 30°09' W 011°50'413.2
2018-Apr-17 19:00N 30°13' W 011°47'713.3
2018-Apr-17 18:30N 30°18' W 011°43'713.2
2018-Apr-17 18:00N 30°24' W 011°38'713.3
2018-Apr-17 17:30N 30°29' W 011°34'713.3
2018-Apr-17 16:59N 30°35' W 011°29'613.3
2018-Apr-17 16:30N 30°40' W 011°25'713.3
2018-Apr-17 15:58N 30°46' W 011°20'613.5
2018-Apr-17 15:30N 30°51' W 011°16'713.6
2018-Apr-17 15:00N 30°57' W 011°12'713.5
2018-Apr-17 14:30N 31°02' W 011°08'713.4
2018-Apr-17 14:00N 31°08' W 011°03'713.1
2018-Apr-17 13:28N 31°14' W 010°59'613.0
2018-Apr-17 13:00N 31°19' W 010°55'713.2
2018-Apr-17 12:30N 31°24' W 010°50'38112.8
2018-Apr-16 06:39N 35°58' W 005°32'110.0
2018-Apr-16 06:30N 35°59' W 005°30'5 9.5
2018-Apr-16 06:00N 36°00' W 005°25'5 9.6
2018-Apr-16 05:30N 36°01' W 005°19'5 9.9
2018-Apr-16 05:00N 36°02' W 005°13'611.0
2018-Apr-16 04:29N 36°03' W 005°06'911.3
2018-Apr-16 03:42N 36°04' W 004°55'19210.1
2018-Apr-15 08:36N 37°09' W 001°09'612.9
2018-Apr-15 08:08N 37°13' W 001°04'213.0
2018-Apr-15 08:00N 37°14' W 001°02'712.8
2018-Apr-15 07:27N 37°19' W 000°55'612.5
2018-Apr-15 06:59N 37°22' W 000°50'612.9
2018-Apr-15 06:29N 37°27' W 000°44'612.9
2018-Apr-15 06:00N 37°31' W 000°38'612.9
2018-Apr-15 05:30N 37°36' W 000°32'612.7
2018-Apr-15 05:00N 37°41' W 000°27'612.4
2018-Apr-15 04:30N 37°46' W 000°23'613.1
2018-Apr-15 04:00N 37°51' W 000°19'712.9
2018-Apr-15 03:30N 37°57' W 000°15'612.9
2018-Apr-15 03:00N 38°02' W 000°10'713.1
2018-Apr-15 02:29N 38°08' W 000°05'19213.2
2018-Apr-14 11:58N 40°56' E 001°55'714.0
2018-Apr-14 11:29N 41°02' E 001°60'713.9
2018-Apr-14 11:00N 41°07' E 002°04'713.6
2018-Apr-14 10:30N 41°13' E 002°08'611.4
2018-Apr-14 10:00N 41°19' E 002°10'2 4.2
2018-Apr-14 09:28N 41°21' E 002°10'1 1.0
2018-Apr-14 08:58N 41°22' E 002°10'0 0.0
2018-Apr-14 08:28N 41°22' E 002°10'0 0.0
2018-Apr-14 07:58N 41°22' E 002°10'0 0.0
2018-Apr-14 07:28N 41°22' E 002°10'0 0.0
2018-Apr-14 06:58N 41°22' E 002°10'0 0.0
2018-Apr-14 06:28N 41°22' E 002°10'0 0.0
2018-Apr-14 05:58N 41°22' E 002°10'0 0.0
2018-Apr-14 05:28N 41°22' E 002°10'0 0.0
2018-Apr-14 04:58N 41°22' E 002°10'0 0.0
2018-Apr-14 04:28N 41°22' E 002°10'0 0.0
2018-Apr-14 03:58N 41°22' E 002°10'0 0.0
2018-Apr-14 03:28N 41°22' E 002°11'0 0.0
2018-Apr-14 02:58N 41°22' E 002°10'0 0.0
2018-Apr-14 02:28N 41°22' E 002°10'0 0.0
2018-Apr-14 01:58N 41°22' E 002°10'0 0.0
2018-Apr-14 01:28N 41°22' E 002°10'0 0.0
2018-Apr-14 00:58N 41°22' E 002°10'0 0.0
2018-Apr-14 00:28N 41°22' E 002°11'0 0.0
2018-Apr-13 23:58N 41°22' E 002°10'0 0.0
2018-Apr-13 23:28N 41°22' E 002°10'0 0.0
2018-Apr-13 22:58N 41°22' E 002°10'0 0.0
2018-Apr-13 22:28N 41°22' E 002°10'0 0.0
2018-Apr-13 21:55N 41°22' E 002°10'0 0.0
2018-Apr-13 21:28N 41°22' E 002°10'0 0.0
2018-Apr-13 20:58N 41°22' E 002°10'0 0.0
2018-Apr-13 20:28N 41°22' E 002°10'0 0.0
2018-Apr-13 19:58N 41°22' E 002°10'0 0.0
2018-Apr-13 19:28N 41°22' E 002°10'0 0.0
2018-Apr-13 18:52N 41°22' E 002°10'0 0.0
2018-Apr-13 18:25N 41°22' E 002°10'0 0.0
2018-Apr-13 17:58N 41°22' E 002°10'0 0.0
2018-Apr-13 16:52N 41°22' E 002°10'0 0.0
2018-Apr-13 16:28N 41°22' E 002°10'0 0.0
2018-Apr-13 15:58N 41°22' E 002°10'0 0.0
2018-Apr-13 15:28N 41°22' E 002°10'0 0.0
2018-Apr-13 14:58N 41°22' E 002°10'0 0.0
2018-Apr-13 14:25N 41°22' E 002°10'0 0.0
2018-Apr-13 13:58N 41°22' E 002°10'0 0.0
2018-Apr-13 13:31N 41°22' E 002°10'0 0.0
2018-Apr-13 12:57N 41°21' E 002°10'0 0.0
2018-Apr-13 12:31N 41°22' E 002°10'0 0.0
2018-Apr-13 12:00N 41°22' E 002°10'0 0.0
2018-Apr-13 11:30N 41°22' E 002°10'0 0.0
2018-Apr-13 11:00N 41°22' E 002°10'0 0.0
2018-Apr-13 10:30N 41°22' E 002°10'0 0.0
2018-Apr-13 10:00N 41°22' E 002°10'0 0.1
2018-Apr-13 09:30N 41°22' E 002°10'0 0.1
2018-Apr-13 09:00N 41°22' E 002°10'0 0.0
2018-Apr-13 08:30N 41°22' E 002°10'0 0.0
2018-Apr-13 08:00N 41°22' E 002°10'0 0.0
2018-Apr-13 07:30N 41°22' E 002°10'0 0.0
2018-Apr-13 07:00N 41°22' E 002°10'0 0.0
2018-Apr-13 06:30N 41°22' E 002°10'0 0.0
2018-Apr-13 06:00N 41°22' E 002°10'0 0.0
2018-Apr-13 05:30N 41°22' E 002°10'0 0.0
2018-Apr-13 05:00N 41°22' E 002°10'0 0.0
2018-Apr-13 04:30N 41°22' E 002°10'0 0.0
2018-Apr-13 04:00N 41°22' E 002°10'0 0.0
2018-Apr-13 03:30N 41°22' E 002°10'0 0.0
2018-Apr-13 03:00N 41°22' E 002°10'0 0.0
2018-Apr-13 02:30N 41°22' E 002°10'0 0.0
2018-Apr-13 01:57N 41°22' E 002°10'0 0.0
2018-Apr-13 01:30N 41°22' E 002°10'0 0.0
2018-Apr-13 01:00N 41°22' E 002°10'0 0.0
2018-Apr-13 00:30N 41°22' E 002°10'0 0.0
2018-Apr-13 00:00N 41°22' E 002°10'0 0.0
2018-Apr-12 23:27N 41°22' E 002°10'0 0.0
2018-Apr-12 23:00N 41°22' E 002°10'0 0.0
2018-Apr-12 22:30N 41°22' E 002°10'0 0.0
2018-Apr-12 21:57N 41°22' E 002°10'0 0.0
2018-Apr-12 21:30N 41°22' E 002°10'0 0.0
2018-Apr-12 20:57N 41°22' E 002°10'0 0.0
2018-Apr-12 20:30N 41°22' E 002°10'0 0.0
2018-Apr-12 20:00N 41°22' E 002°10'0 0.0
2018-Apr-12 19:30N 41°22' E 002°10'0 0.0
2018-Apr-12 19:00N 41°22' E 002°10'0 0.0
2018-Apr-12 18:30N 41°22' E 002°10'0 0.0
2018-Apr-12 18:00N 41°22' E 002°10'0 0.0
2018-Apr-12 17:30N 41°22' E 002°10'0 0.0
2018-Apr-12 17:00N 41°22' E 002°10'0 0.0
2018-Apr-12 16:30N 41°22' E 002°10'0 0.0
2018-Apr-12 16:00N 41°22' E 002°10'0 0.0
2018-Apr-12 15:30N 41°22' E 002°10'0 0.0
2018-Apr-12 15:00N 41°22' E 002°10'0 0.0
2018-Apr-12 14:30N 41°22' E 002°10'0 0.0
2018-Apr-12 14:00N 41°22' E 002°10'0 0.0
2018-Apr-12 13:30N 41°22' E 002°10'0 0.0
2018-Apr-12 13:00N 41°22' E 002°10'0 0.0
2018-Apr-12 12:30N 41°22' E 002°10'0 0.0
2018-Apr-12 12:00N 41°22' E 002°10'0 0.0
2018-Apr-12 11:30N 41°22' E 002°10'0 0.0
2018-Apr-12 11:00N 41°22' E 002°10'0 0.0
2018-Apr-12 10:30N 41°22' E 002°10'0 0.0
2018-Apr-12 10:00N 41°22' E 002°10'0 0.0
2018-Apr-12 09:30N 41°22' E 002°11'0 0.0
2018-Apr-12 09:00N 41°22' E 002°10'0 0.0
2018-Apr-12 08:30N 41°22' E 002°10'0 0.0
2018-Apr-12 08:00N 41°22' E 002°10'0 0.0
2018-Apr-12 07:27N 41°22' E 002°10'1 1.6
2018-Apr-12 07:00N 41°21' E 002°10'4 7.4
2018-Apr-12 06:30N 41°17' E 002°11'3 6.4
2018-Apr-12 06:00N 41°18' E 002°15'5 3.0
2018-Apr-12 04:14N 41°21' E 002°20'0 0.2
2018-Apr-12 04:00N 41°21' E 002°20'0 0.2
2018-Apr-12 03:30N 41°21' E 002°21'0 0.5
2018-Apr-12 03:00N 41°21' E 002°21'0 0.6
2018-Apr-12 02:30N 41°21' E 002°20'1 1.4
2018-Apr-12 02:00N 41°20' E 002°20'3 5.1
2018-Apr-12 01:30N 41°20' E 002°16'1 1.0
2018-Apr-12 01:00N 41°20' E 002°16'0 0.8
2018-Apr-12 00:30N 41°20' E 002°17'0 0.8
2018-Apr-12 00:00N 41°20' E 002°17'0 0.9
2018-Apr-11 23:30N 41°19' E 002°18'0 0.8
2018-Apr-11 23:00N 41°19' E 002°19'  

Dump ship's entire track history